Time;durP1;ratioP1;P1;durP2;ratioP2;P2;SDS_P1;SDS_P2;PMS_P1;PMS_P2;Temp;Humidity;BMP_temperature;BMP_pressure;BME280_temperature;BME280_humidity;BME280_pressure;Samples;Min_cycle;Max_cycle;Signal;HPM_P1;HPM_P2
2023/10/15 00:00:51;;;;;;;10.20;5.18;;;;;;;15.55;46.84;94704.06;5028327;28;20025;-75
2023/10/15 00:03:17;;;;;;;9.95;4.70;;;;;;;15.59;46.96;94712.94;5029701;28;20131;-76
2023/10/15 00:05:43;;;;;;;9.05;4.93;;;;;;;15.54;47.04;94708.06;5045254;28;20036;-75
2023/10/15 00:08:09;;;;;;;8.73;4.63;;;;;;;15.57;46.85;94707.09;5013151;28;20025;-75
2023/10/15 00:10:34;;;;;;;10.57;5.15;;;;;;;15.54;46.92;94705.31;5045082;28;20040;-76
2023/10/15 00:13:00;;;;;;;9.88;4.95;;;;;;;15.49;47.06;94694.88;5047615;28;20036;-75
2023/10/15 00:15:28;;;;;;;8.63;4.70;;;;;;;15.51;47.16;94700.69;5028192;28;20591;-75
2023/10/15 00:18:00;;;;;;;7.97;4.60;;;;;;;15.48;47.19;94692.56;5028128;28;20044;-75
2023/10/15 00:20:31;;;;;;;8.13;4.32;;;;;;;15.50;47.42;94692.88;5029349;28;20021;-76
2023/10/15 00:22:57;;;;;;;6.63;4.20;;;;;;;15.47;47.17;94693.81;5011148;28;20124;-75
2023/10/15 00:25:22;;;;;;;9.45;4.50;;;;;;;15.44;47.44;94686.47;5029245;28;20074;-76
2023/10/15 00:27:54;;;;;;;7.68;4.63;;;;;;;15.47;47.23;94688.25;5006090;28;20029;-76
2023/10/15 00:30:31;;;;;;;8.43;4.93;;;;;;;15.49;47.52;94685.81;5019380;28;20519;-76
2023/10/15 00:32:57;;;;;;;8.73;5.45;;;;;;;15.43;47.67;94688.47;5029723;28;20036;-76
2023/10/15 00:35:25;;;;;;;8.48;4.55;;;;;;;15.40;47.65;94690.16;5010022;28;20783;-76
2023/10/15 00:37:57;;;;;;;10.60;4.82;;;;;;;15.39;47.76;94696.94;5008963;28;20041;-75
2023/10/15 00:40:24;;;;;;;8.30;4.72;;;;;;;15.36;47.98;94689.56;5007403;28;20029;-76
2023/10/15 00:42:49;;;;;;;7.45;4.82;;;;;;;15.36;48.12;94694.34;5028778;28;20507;-76
2023/10/15 00:45:17;;;;;;;9.82;5.18;;;;;;;15.24;48.37;94671.22;5002029;28;20033;-77
2023/10/15 00:47:44;;;;;;;7.25;4.80;;;;;;;15.19;48.57;94676.63;5027833;28;20037;-74
2023/10/15 00:50:09;;;;;;;10.43;4.70;;;;;;;15.24;48.50;94681.53;5027794;28;20483;-77
2023/10/15 00:52:42;;;;;;;9.07;4.82;;;;;;;15.19;48.54;94682.94;5027842;28;20044;-74
2023/10/15 00:55:11;;;;;;;9.43;4.50;;;;;;;15.16;48.46;94685.91;5012789;28;20044;-75
2023/10/15 00:57:42;;;;;;;10.10;5.10;;;;;;;15.06;48.92;94674.88;5010641;28;20057;-75
2023/10/15 01:00:37;;;;;;;7.82;5.22;;;;;;;15.05;48.90;94684.44;5029594;28;20534;-75
2023/10/15 01:03:01;;;;;;;11.50;5.22;;;;;;;14.97;49.17;94688.03;5020462;28;20056;-75
2023/10/15 01:05:33;;;;;;;9.25;6.03;;;;;;;14.94;49.15;94686.97;5028888;28;20036;-75
2023/10/15 01:08:02;;;;;;;7.32;4.95;;;;;;;14.91;49.00;94687.94;5028909;28;20025;-75
2023/10/15 01:10:32;;;;;;;7.30;5.13;;;;;;;14.85;49.22;94681.47;5027333;28;20029;-75
2023/10/15 01:13:05;;;;;;;6.32;5.03;;;;;;;14.80;49.46;94682.16;5027438;28;20475;-75
2023/10/15 01:15:34;;;;;;;12.52;5.15;;;;;;;14.84;49.41;94683.50;5026554;28;20048;-75
2023/10/15 01:18:06;;;;;;;7.40;5.55;;;;;;;14.78;49.66;94684.59;5046154;28;20480;-76
2023/10/15 01:20:36;;;;;;;9.02;5.32;;;;;;;14.68;49.85;94685.88;5011513;28;20032;-76
2023/10/15 01:23:01;;;;;;;10.80;5.30;;;;;;;14.69;50.17;94676.38;5010090;28;20025;-76
2023/10/15 01:25:32;;;;;;;9.10;5.22;;;;;;;14.56;50.05;94671.81;5011994;28;20039;-76
2023/10/15 01:28:00;;;;;;;10.05;5.13;;;;;;;14.58;50.38;94680.41;5003402;28;20064;-76
2023/10/15 01:30:35;;;;;;;10.23;5.65;;;;;;;14.53;50.42;94686.59;5025614;28;20174;-75
2023/10/15 01:33:06;;;;;;;12.70;6.38;;;;;;;14.52;50.40;94676.00;5027262;28;20047;-75
2023/10/15 01:35:32;;;;;;;12.68;5.88;;;;;;;14.53;50.39;94683.06;5045926;28;20111;-75
2023/10/15 01:38:09;;;;;;;10.55;5.40;;;;;;;14.44;50.70;94681.06;5027532;28;20033;-75
2023/10/15 01:40:44;;;;;;;8.73;5.95;;;;;;;14.43;50.52;94682.31;5028076;28;20068;-75
2023/10/15 01:43:14;;;;;;;9.00;5.70;;;;;;;14.44;50.84;94685.81;5028196;28;20033;-76
2023/10/15 01:45:47;;;;;;;10.50;6.03;;;;;;;14.40;50.79;94679.72;5044787;28;20021;-76
2023/10/15 01:48:24;;;;;;;9.40;5.67;;;;;;;14.35;51.03;94676.34;5027909;28;20134;-77
2023/10/15 01:50:50;;;;;;;12.02;6.70;;;;;;;14.30;51.10;94674.22;5045347;28;20480;-77
2023/10/15 01:53:17;;;;;;;9.48;5.68;;;;;;;14.30;51.18;94674.22;5026577;28;20045;-77
2023/10/15 01:56:02;;;;;;;11.65;5.75;;;;;;;14.28;51.09;94665.63;5028200;28;20479;-77
2023/10/15 01:58:33;;;;;;;12.18;5.82;;;;;;;14.23;51.24;94674.56;5041097;28;20064;-77
2023/10/15 02:01:09;;;;;;;10.00;5.47;;;;;;;14.24;51.18;94670.56;5018330;28;20108;-76
2023/10/15 02:03:37;;;;;;;7.88;4.85;;;;;;;14.22;51.16;94672.25;5028228;28;20131;-76
2023/10/15 02:06:06;;;;;;;8.27;5.80;;;;;;;14.26;50.90;94672.84;5010802;28;20021;-77
2023/10/15 02:08:31;;;;;;;9.82;5.25;;;;;;;14.23;51.41;94668.28;5027852;28;20039;-76
2023/10/15 02:10:57;;;;;;;8.55;4.95;;;;;;;14.14;51.37;94674.59;5025692;28;20108;-77
2023/10/15 02:13:22;;;;;;;9.77;5.85;;;;;;;14.11;51.51;94677.50;5008312;28;20444;-76
2023/10/15 02:15:55;;;;;;;9.60;5.13;;;;;;;14.15;51.36;94681.66;5024325;28;20025;-76
2023/10/15 02:18:21;;;;;;;9.38;5.90;;;;;;;14.14;51.18;94663.53;5004792;28;20094;-76
2023/10/15 02:23:16;;;;;;;8.98;5.22;;;;;;;14.08;51.38;94670.94;5027513;28;20496;-76
2023/10/15 02:25:52;;;;;;;12.60;5.63;;;;;;;14.11;51.55;94670.00;5011172;28;20025;-77
2023/10/15 02:28:25;;;;;;;13.30;5.93;;;;;;;14.09;51.44;94667.69;5044231;28;20223;-74
2023/10/15 02:30:59;;;;;;;9.15;5.40;;;;;;;14.12;51.54;94674.28;5009180;28;20087;-74
2023/10/15 02:33:25;;;;;;;8.13;5.28;;;;;;;14.01;51.76;94674.03;5024032;28;20032;-76
2023/10/15 02:35:54;;;;;;;10.65;5.03;;;;;;;13.95;51.96;94673.88;5031122;28;20025;-77
2023/10/15 02:38:25;;;;;;;7.88;5.50;;;;;;;13.90;52.06;94677.28;5030903;28;20090;-75
2023/10/15 02:41:00;;;;;;;10.85;6.07;;;;;;;13.94;52.05;94679.88;5047988;28;20033;-75
2023/10/15 02:43:26;;;;;;;10.35;5.97;;;;;;;13.91;52.07;94672.50;5015666;28;20058;-76
2023/10/15 02:45:52;;;;;;;11.02;5.82;;;;;;;13.87;52.19;94674.66;5029235;28;20021;-75
2023/10/15 02:48:21;;;;;;;10.15;5.88;;;;;;;13.88;52.28;94674.22;5031332;28;20029;-75
2023/10/15 02:51:08;;;;;;;10.05;5.88;;;;;;;13.82;52.35;94673.31;5013794;28;20036;-76
2023/10/15 02:53:35;;;;;;;8.50;5.50;;;;;;;13.75;52.41;94674.38;5030449;28;20029;-75
2023/10/15 02:56:10;;;;;;;11.25;7.07;;;;;;;13.76;52.52;94669.63;5030698;28;20021;-76
2023/10/15 02:58:38;;;;;;;10.63;6.20;;;;;;;13.67;52.61;94664.13;5010589;28;20482;-75
2023/10/15 03:01:17;;;;;;;10.05;5.40;;;;;;;13.58;52.87;94669.66;4995637;28;20107;-75
2023/10/15 03:03:48;;;;;;;8.55;6.20;;;;;;;13.60;52.80;94656.94;5011433;28;20025;-75
2023/10/15 03:06:25;;;;;;;8.68;6.20;;;;;;;13.61;52.82;94666.00;5031328;28;20021;-77
2023/10/15 03:08:51;;;;;;;8.70;5.78;;;;;;;13.57;52.91;94662.59;5016519;28;20040;-75
2023/10/15 03:11:19;;;;;;;8.98;5.55;;;;;;;13.50;53.09;94658.94;5028097;28;20021;-77
2023/10/15 03:16:18;;;;;;;11.75;6.50;;;;;;;13.43;53.07;94655.75;5033785;28;20045;-76
2023/10/15 03:18:48;;;;;;;13.00;5.60;;;;;;;13.43;53.32;94656.50;5030624;28;20037;-76
2023/10/15 03:21:26;;;;;;;14.35;6.18;;;;;;;13.44;53.16;94665.56;5029442;28;20105;-75
2023/10/15 03:23:55;;;;;;;8.73;5.38;;;;;;;13.40;53.11;94664.94;5031469;28;20483;-75
2023/10/15 03:26:22;;;;;;;8.93;5.85;;;;;;;13.37;53.21;94666.63;5029641;28;20085;-76
2023/10/15 03:28:58;;;;;;;11.50;6.03;;;;;;;13.34;53.23;94666.78;5028783;28;20036;-76
2023/10/15 03:31:27;;;;;;;11.18;6.63;;;;;;;13.34;53.26;94666.78;5031692;28;20337;-75
2023/10/15 03:34:27;;;;;;;10.77;6.30;;;;;;;13.22;53.48;94662.94;5009876;28;20041;-74
2023/10/15 03:36:57;;;;;;;15.95;6.00;;;;;;;13.24;53.51;94666.00;5044334;28;20045;-77
2023/10/15 03:39:44;;;;;;;9.43;5.60;;;;;;;13.20;53.62;94654.34;5030374;28;20087;-74
2023/10/15 03:44:49;;;;;;;11.23;5.75;;;;;;;13.19;53.63;94652.78;5030382;28;20099;-76
2023/10/15 03:47:16;;;;;;;13.15;5.93;;;;;;;13.10;53.76;94653.56;5028993;28;20033;-77
2023/10/15 03:49:51;;;;;;;10.15;5.75;;;;;;;13.09;53.95;94651.28;5012966;28;20029;-75
2023/10/15 03:52:20;;;;;;;15.98;6.03;;;;;;;13.04;53.89;94649.91;5030979;28;20444;-75
2023/10/15 03:54:47;;;;;;;15.52;6.40;;;;;;;13.07;54.01;94659.22;5028194;28;20491;-75
2023/10/15 03:57:22;;;;;;;7.93;5.85;;;;;;;13.00;54.31;94660.31;5030016;28;20024;-75
2023/10/15 03:59:57;;;;;;;14.25;6.38;;;;;;;12.99;54.21;94658.78;5027551;28;20111;-75
2023/10/15 04:02:26;;;;;;;12.07;5.82;;;;;;;12.96;54.13;94657.72;5008324;28;20500;-76
2023/10/15 04:05:10;;;;;;;12.55;5.78;;;;;;;12.99;54.19;94648.50;5016964;28;20017;-75
2023/10/15 04:07:40;;;;;;;10.95;6.22;;;;;;;12.91;54.53;94652.81;5030672;28;20774;-75
2023/10/15 04:10:08;;;;;;;9.35;6.30;;;;;;;12.87;54.50;94645.91;5013937;28;20036;-75
2023/10/15 04:12:35;;;;;;;10.20;6.35;;;;;;;12.85;54.49;94648.34;5026946;28;20127;-75
2023/10/15 04:15:14;;;;;;;10.13;6.00;;;;;;;12.86;54.70;94653.41;5047573;28;20755;-75
2023/10/15 04:17:40;;;;;;;11.93;6.50;;;;;;;12.81;54.48;94648.50;5028030;28;20423;-75
2023/10/15 04:20:06;;;;;;;11.65;7.18;;;;;;;12.82;54.53;94644.50;5028916;28;20021;-75
2023/10/15 04:22:36;;;;;;;14.65;6.53;;;;;;;12.76;54.71;94635.31;5028179;28;20037;-75
2023/10/15 04:25:06;;;;;;;12.07;7.35;;;;;;;12.75;54.70;94644.81;5045271;28;20091;-75
2023/10/15 04:27:34;;;;;;;10.18;6.22;;;;;;;12.70;54.72;94653.69;5009463;28;20064;-74
2023/10/15 04:30:00;;;;;;;9.63;6.50;;;;;;;12.72;54.54;94657.50;5015248;28;20073;-75
2023/10/15 04:32:29;;;;;;;11.00;7.07;;;;;;;12.76;54.85;94660.91;5008238;28;20065;-75
2023/10/15 04:35:08;;;;;;;13.55;6.82;;;;;;;12.71;54.73;94655.97;5011471;28;20137;-75
2023/10/15 04:37:36;;;;;;;10.65;6.20;;;;;;;12.64;54.80;94648.00;5012178;28;20106;-75
2023/10/15 04:40:04;;;;;;;13.02;6.85;;;;;;;12.67;54.80;94657.34;5028987;28;20024;-75
2023/10/15 04:42:36;;;;;;;11.43;7.18;;;;;;;12.66;54.86;94658.56;5044410;28;20047;-75
2023/10/15 04:45:03;;;;;;;11.18;6.50;;;;;;;12.63;55.20;94665.78;5030516;28;20025;-75
2023/10/15 04:47:33;;;;;;;14.52;6.65;;;;;;;12.63;54.89;94663.03;5045247;28;20032;-75
2023/10/15 04:49:58;;;;;;;14.80;7.57;;;;;;;12.61;55.12;94670.97;5029393;28;20041;-75
2023/10/15 04:52:27;;;;;;;16.58;8.40;;;;;;;12.58;55.20;94655.34;5046537;28;20031;-76
2023/10/15 04:54:55;;;;;;;12.32;7.38;;;;;;;12.60;55.23;94665.94;5027383;28;20116;-75
2023/10/15 04:57:22;;;;;;;15.35;7.78;;;;;;;12.59;55.22;94670.66;5028180;28;20037;-75
2023/10/15 04:59:47;;;;;;;13.55;8.15;;;;;;;12.56;55.41;94670.81;5026336;28;20029;-75
2023/10/15 05:02:13;;;;;;;10.70;7.40;;;;;;;12.59;55.32;94672.66;5028861;28;20044;-75
2023/10/15 05:04:38;;;;;;;12.40;8.15;;;;;;;12.55;55.31;94661.78;5044206;28;20116;-75
2023/10/15 05:07:05;;;;;;;14.50;7.70;;;;;;;12.55;55.48;94672.03;5002463;28;20025;-75
2023/10/15 05:09:31;;;;;;;13.70;7.47;;;;;;;12.55;55.50;94672.81;5018552;28;20025;-75
2023/10/15 05:11:58;;;;;;;13.98;7.28;;;;;;;12.59;55.44;94680.94;5007838;28;20505;-75
2023/10/15 05:14:23;;;;;;;15.65;8.00;;;;;;;12.61;55.47;94672.97;5028177;28;20032;-75
2023/10/15 05:16:49;;;;;;;18.50;8.02;;;;;;;12.66;55.26;94661.34;5026676;28;20469;-75
2023/10/15 05:19:17;;;;;;;13.07;7.82;;;;;;;12.64;55.33;94675.59;5028162;28;20060;-74
2023/10/15 05:21:46;;;;;;;14.10;7.57;;;;;;;12.71;55.51;94672.53;5026362;28;20120;-75
2023/10/15 05:24:19;;;;;;;15.10;8.10;;;;;;;12.69;55.49;94675.00;5027993;28;20313;-76
2023/10/15 05:26:48;;;;;;;15.45;8.48;;;;;;;12.72;55.44;94687.09;5024084;28;20024;-75
2023/10/15 05:29:17;;;;;;;11.32;7.85;;;;;;;12.75;55.58;94683.44;5011116;28;20029;-76
2023/10/15 05:31:43;;;;;;;15.80;7.68;;;;;;;12.77;55.58;94681.75;5027731;28;20093;-75
2023/10/15 05:34:09;;;;;;;11.95;7.80;;;;;;;12.74;55.86;94668.09;5044182;28;20480;-75
2023/10/15 05:36:35;;;;;;;12.35;7.95;;;;;;;12.84;55.72;94672.41;5035519;28;20115;-75
2023/10/15 05:39:02;;;;;;;16.10;8.07;;;;;;;12.85;55.40;94664.91;5026120;28;20070;-76
2023/10/15 05:41:31;;;;;;;10.65;8.30;;;;;;;12.86;55.25;94669.19;5028782;28;20104;-77
2023/10/15 05:43:56;;;;;;;12.23;7.78;;;;;;;12.94;55.33;94670.41;5010083;28;20060;-74
2023/10/15 05:46:22;;;;;;;17.10;9.57;;;;;;;13.00;55.43;94668.59;5008307;28;20132;-78
2023/10/15 05:48:47;;;;;;;11.65;7.85;;;;;;;13.03;55.48;94671.19;5010950;28;20132;-73
2023/10/15 05:51:13;;;;;;;13.95;7.30;;;;;;;13.06;55.30;94669.50;5009622;28;20033;-73
2023/10/15 05:53:39;;;;;;;15.13;8.70;;;;;;;13.19;55.03;94677.63;5028265;28;20477;-73
2023/10/15 05:56:05;;;;;;;14.98;8.60;;;;;;;13.25;54.72;94665.56;5026134;28;20036;-75
2023/10/15 05:58:31;;;;;;;12.57;8.10;;;;;;;13.27;54.72;94673.38;5045713;28;20665;-75
2023/10/15 06:00:57;;;;;;;12.68;8.18;;;;;;;13.36;54.63;94670.63;5008831;28;20116;-74
2023/10/15 06:03:22;;;;;;;13.75;8.90;;;;;;;13.46;54.42;94674.88;4998988;28;20025;-73
2023/10/15 06:05:48;;;;;;;14.10;8.85;;;;;;;13.55;54.41;94677.66;5020094;28;20047;-74
2023/10/15 06:08:14;;;;;;;14.10;8.20;;;;;;;13.59;54.21;94687.75;5047130;28;20090;-74
2023/10/15 06:10:39;;;;;;;18.25;9.18;;;;;;;13.62;54.12;94678.56;5015047;28;20545;-75
2023/10/15 06:13:05;;;;;;;18.52;8.90;;;;;;;13.74;53.97;94681.16;5013201;28;20033;-74
2023/10/15 06:15:30;;;;;;;17.38;9.90;;;;;;;13.80;53.97;94684.06;5032053;28;20025;-74
2023/10/15 06:17:56;;;;;;;16.88;9.52;;;;;;;13.89;53.74;94683.28;5028868;28;20488;-75
2023/10/15 06:20:21;;;;;;;13.77;9.05;;;;;;;13.93;53.57;94675.56;5015073;28;20522;-74
2023/10/15 06:22:49;;;;;;;17.25;10.40;;;;;;;14.00;53.34;94680.78;5029986;28;20051;-75
2023/10/15 06:25:18;;;;;;;17.58;9.85;;;;;;;14.07;53.35;94667.41;5031492;28;20032;-74
2023/10/15 06:27:43;;;;;;;18.02;10.50;;;;;;;14.16;52.93;94676.88;5030943;28;20487;-75
2023/10/15 06:30:14;;;;;;;16.15;9.93;;;;;;;14.24;52.80;94676.09;5009834;28;20041;-73
2023/10/15 06:32:41;;;;;;;18.85;10.32;;;;;;;14.34;52.48;94671.28;5015430;28;20039;-72
2023/10/15 06:35:07;;;;;;;17.05;9.40;;;;;;;14.44;52.23;94670.00;5029256;28;20472;-74
2023/10/15 06:37:33;;;;;;;14.23;9.77;;;;;;;14.42;51.92;94644.81;5030423;28;20055;-72
2023/10/15 06:40:00;;;;;;;15.50;9.88;;;;;;;14.54;51.75;94652.16;5029784;28;20048;-72
2023/10/15 06:42:26;;;;;;;20.70;11.13;;;;;;;14.67;51.59;94659.47;5031058;28;20021;-72
2023/10/15 06:44:52;;;;;;;20.20;10.82;;;;;;;14.77;51.33;94664.47;5030090;28;20130;-73
2023/10/15 06:47:17;;;;;;;18.85;10.48;;;;;;;14.84;51.16;94657.81;5048061;28;20537;-73
2023/10/15 06:49:44;;;;;;;14.77;8.43;;;;;;;14.93;50.90;94663.31;5049178;28;20028;-73
2023/10/15 06:52:09;;;;;;;16.50;8.82;;;;;;;15.05;50.42;94661.53;5046780;28;20024;-72
2023/10/15 06:54:34;;;;;;;15.60;8.88;;;;;;;15.11;50.39;94649.31;5031132;28;20475;-73
2023/10/15 06:57:00;;;;;;;15.25;9.05;;;;;;;15.21;50.26;94650.03;5028859;28;20027;-71
2023/10/15 06:59:27;;;;;;;14.85;9.65;;;;;;;15.32;50.17;94644.69;5030775;28;20502;-72
2023/10/15 07:01:52;;;;;;;20.10;9.63;;;;;;;15.46;49.84;94645.19;5030134;28;20056;-73
2023/10/15 07:04:18;;;;;;;12.98;8.77;;;;;;;15.57;49.75;94634.31;5047838;28;20068;-72
2023/10/15 07:06:44;;;;;;;15.75;8.82;;;;;;;15.69;49.30;94629.75;5048197;28;20033;-71
2023/10/15 07:09:09;;;;;;;15.27;9.40;;;;;;;15.79;49.25;94625.66;5003299;28;20029;-72
2023/10/15 07:11:35;;;;;;;17.58;10.55;;;;;;;15.92;49.00;94631.66;5024614;28;20495;-72
2023/10/15 07:14:02;;;;;;;13.55;8.65;;;;;;;16.04;48.75;94636.13;5028254;28;20107;-72
2023/10/15 07:16:28;;;;;;;14.23;8.15;;;;;;;16.17;48.30;94633.84;5048170;28;20024;-72
2023/10/15 07:18:54;;;;;;;14.65;7.95;;;;;;;16.32;47.68;94630.28;5028501;28;20087;-72
2023/10/15 07:21:19;;;;;;;16.67;8.98;;;;;;;16.48;47.78;94629.75;5029662;28;20025;-72
2023/10/15 07:23:45;;;;;;;15.30;8.60;;;;;;;16.64;47.18;94634.00;5029533;28;20151;-71
2023/10/15 07:26:10;;;;;;;12.77;8.00;;;;;;;16.77;46.71;94633.72;5029301;28;20087;-73
2023/10/15 07:28:36;;;;;;;9.27;7.05;;;;;;;16.91;48.99;94630.84;5048486;28;20028;-73
2023/10/15 07:31:01;;;;;;;13.35;7.53;;;;;;;17.10;48.55;94628.56;5046200;28;20017;-72
2023/10/15 07:33:27;;;;;;;12.60;7.65;;;;;;;17.27;47.37;94625.22;5029581;28;20021;-71
2023/10/15 07:35:52;;;;;;;11.88;7.88;;;;;;;17.41;46.75;94627.91;5045900;28;20124;-73
2023/10/15 07:38:18;;;;;;;14.13;8.38;;;;;;;17.59;45.75;94615.72;5047865;28;20388;-71
2023/10/15 07:40:43;;;;;;;14.77;8.32;;;;;;;17.80;45.07;94624.03;5046385;28;20036;-72
2023/10/15 07:43:08;;;;;;;11.88;7.70;;;;;;;17.98;45.13;94618.88;5029683;28;20495;-72
2023/10/15 07:45:35;;;;;;;10.95;7.00;;;;;;;18.20;43.38;94617.53;5013185;28;20538;-72
2023/10/15 07:48:02;;;;;;;10.00;6.68;;;;;;;18.39;43.94;94615.13;5028939;28;20511;-72
2023/10/15 07:50:29;;;;;;;13.73;6.10;;;;;;;18.59;43.24;94609.44;5047992;28;20052;-72
2023/10/15 07:52:54;;;;;;;10.90;5.82;;;;;;;18.84;42.14;94605.81;5046387;28;20059;-72
2023/10/15 07:55:23;;;;;;;12.38;6.13;;;;;;;19.11;41.87;94612.00;5030143;28;20053;-72
2023/10/15 07:57:49;;;;;;;8.93;5.82;;;;;;;19.40;41.66;94596.91;5028838;28;20136;-73
2023/10/15 08:00:15;;;;;;;9.75;5.55;;;;;;;19.80;40.68;94612.47;5029972;28;20033;-72
2023/10/15 08:02:45;;;;;;;11.95;5.95;;;;;;;20.20;40.05;94618.81;5047447;28;20028;-73
2023/10/15 08:05:11;;;;;;;13.07;5.93;;;;;;;20.61;39.05;94609.91;5028603;28;20025;-73
2023/10/15 08:07:37;;;;;;;13.65;5.50;;;;;;;21.06;38.14;94607.75;5047862;28;20094;-72
2023/10/15 08:10:03;;;;;;;16.85;6.05;;;;;;;21.50;36.68;94608.09;5045718;28;20028;-72
2023/10/15 08:12:29;;;;;;;14.40;6.28;;;;;;;21.73;35.96;94603.88;5029340;28;20041;-76
2023/10/15 08:15:00;;;;;;;9.93;5.70;;;;;;;21.99;35.35;94601.41;5027184;28;20446;-77
2023/10/15 08:17:26;;;;;;;10.13;5.57;;;;;;;22.32;34.97;94594.06;5029382;28;20427;-77
2023/10/15 08:19:53;;;;;;;10.77;5.60;;;;;;;22.64;34.17;94596.31;5026988;28;20029;-76
2023/10/15 08:22:18;;;;;;;9.10;5.55;;;;;;;22.96;34.16;94588.09;5045026;28;20048;-76
2023/10/15 08:24:44;;;;;;;9.15;4.65;;;;;;;23.42;33.05;94595.44;5028659;28;20053;-77
2023/10/15 08:27:13;;;;;;;9.55;4.85;;;;;;;23.93;32.74;94589.16;5026489;28;20416;-77
2023/10/15 08:29:39;;;;;;;8.52;4.80;;;;;;;24.45;32.11;94585.00;5030288;28;20029;-75
2023/10/15 08:32:06;;;;;;;8.70;4.72;;;;;;;25.05;30.63;94573.94;5009229;28;20021;-76
2023/10/15 08:34:32;;;;;;;9.10;4.97;;;;;;;25.64;29.88;94573.75;5012655;28;20102;-73
2023/10/15 08:36:57;;;;;;;11.75;5.07;;;;;;;26.36;29.46;94588.19;5045562;28;20028;-75
2023/10/15 08:39:23;;;;;;;7.95;4.82;;;;;;;27.09;28.03;94572.25;5045953;28;20040;-75
2023/10/15 08:41:51;;;;;;;9.93;5.10;;;;;;;27.77;26.61;94573.91;5027831;28;20086;-76
2023/10/15 08:44:18;;;;;;;16.40;6.78;;;;;;;28.68;25.50;94581.03;5009583;28;20116;-75
2023/10/15 08:46:45;;;;;;;10.18;5.22;;;;;;;29.55;24.58;94572.03;5029231;28;20048;-77
2023/10/15 08:49:13;;;;;;;10.93;5.40;;;;;;;30.56;23.87;94573.72;5027114;28;20067;-76
2023/10/15 08:51:39;;;;;;;10.00;5.00;;;;;;;31.61;22.16;94571.84;5029545;28;20112;-76
2023/10/15 08:54:05;;;;;;;9.25;4.50;;;;;;;32.61;21.22;94566.31;5027601;28;20109;-76
2023/10/15 08:56:32;;;;;;;11.77;4.90;;;;;;;33.55;20.32;94570.59;5028127;28;20041;-77
2023/10/15 08:58:58;;;;;;;10.43;4.95;;;;;;;34.43;19.12;94566.28;5028586;28;20029;-77
2023/10/15 09:01:23;;;;;;;8.45;4.63;;;;;;;34.64;18.60;94559.13;5027581;28;20025;-77
2023/10/15 09:03:52;;;;;;;12.02;6.93;;;;;;;35.01;18.40;94565.28;5004478;28;20032;-76
2023/10/15 09:06:18;;;;;;;13.05;4.93;;;;;;;35.45;17.71;94559.00;5010954;28;20543;-74
2023/10/15 09:08:44;;;;;;;14.70;4.95;;;;;;;36.01;17.44;94564.09;5012031;28;20448;-75
2023/10/15 09:11:12;;;;;;;10.95;5.93;;;;;;;36.51;16.96;94559.38;5027180;28;20104;-77
2023/10/15 09:13:38;;;;;;;12.27;4.60;;;;;;;37.00;16.76;94551.69;5028982;28;20480;-76
2023/10/15 09:16:05;;;;;;;14.48;5.97;;;;;;;37.39;16.15;94554.78;5045848;28;20108;-77
2023/10/15 09:18:35;;;;;;;11.68;5.05;;;;;;;37.84;16.18;94545.88;5027773;28;20114;-78
2023/10/15 09:21:03;;;;;;;6.70;3.75;;;;;;;38.37;16.05;94556.72;5028945;28;20055;-80
2023/10/15 09:23:37;;;;;;;8.85;4.00;;;;;;;38.85;15.03;94537.81;5027447;28;20021;-80
2023/10/15 09:26:06;;;;;;;8.43;4.07;;;;;;;39.44;14.62;94546.63;5011502;28;20025;-84
2023/10/15 09:28:32;;;;;;;8.20;4.00;;;;;;;39.52;14.19;94541.31;5027179;28;20583;-83
2023/10/15 09:31:05;;;;;;;10.40;5.00;;;;;;;40.03;13.51;94544.56;5008949;28;20040;-85
2023/10/15 09:33:32;;;;;;;10.93;4.40;;;;;;;40.51;13.59;94536.06;5008371;28;20017;-84
2023/10/15 09:35:58;;;;;;;8.30;4.00;;;;;;;40.85;13.19;94543.41;5008608;28;20457;-83
2023/10/15 09:38:23;;;;;;;5.85;3.65;;;;;;;41.32;13.40;94530.34;5009207;28;20026;-83
2023/10/15 09:40:49;;;;;;;7.70;3.30;;;;;;;41.80;12.55;94525.19;4991561;28;20056;-84
2023/10/15 09:43:15;;;;;;;9.40;3.90;;;;;;;42.11;12.56;94521.38;5013952;28;20074;-83
2023/10/15 09:45:44;;;;;;;7.40;3.50;;;;;;;42.57;12.20;94518.88;5044664;28;20021;-84
2023/10/15 09:48:09;;;;;;;7.05;3.67;;;;;;;43.03;11.94;94516.28;5046308;28;20112;-84
2023/10/15 09:50:38;;;;;;;7.93;3.70;;;;;;;43.56;11.39;94513.09;5027631;28;20024;-83
2023/10/15 09:53:10;;;;;;;6.75;3.70;;;;;;;43.72;11.25;94510.03;5046116;28;20064;-82
2023/10/15 09:55:37;;;;;;;8.57;3.50;;;;;;;44.13;10.94;94511.38;5028344;28;20028;-83
2023/10/15 09:58:10;;;;;;;9.85;3.90;;;;;;;44.45;10.62;94506.63;5045248;28;20033;-84
2023/10/15 10:03:22;;;;;;;5.55;3.60;;;;;;;45.42;10.12;94510.88;5007893;28;20108;-86
2023/10/15 10:05:58;;;;;;;9.48;3.63;;;;;;;45.76;10.23;94493.63;5008526;28;20492;-83
2023/10/15 10:08:57;;;;;;;7.88;3.50;;;;;;;46.12;9.76;94492.31;5008962;28;20524;-81
2023/10/15 10:12:05;;;;;;;6.45;3.75;;;;;;;45.67;9.72;94489.03;5016336;28;20037;-83
2023/10/15 10:14:37;;;;;;;7.32;3.40;;;;;;;45.05;10.13;94485.91;5041890;28;20510;-84
2023/10/15 10:17:06;;;;;;;7.95;3.30;;;;;;;45.26;9.82;94472.72;5046426;28;20506;-86
2023/10/15 10:19:31;;;;;;;6.70;3.20;;;;;;;45.82;10.23;94478.53;5043935;28;20029;-78
2023/10/15 10:21:58;;;;;;;8.25;3.85;;;;;;;45.70;10.08;94469.50;5027548;28;20690;-78
2023/10/15 10:24:23;;;;;;;7.75;3.40;;;;;;;45.59;10.01;94473.56;5024859;28;20091;-78
2023/10/15 10:26:53;;;;;;;6.38;3.03;;;;;;;45.27;9.87;94456.78;5027665;28;20033;-77
2023/10/15 10:29:19;;;;;;;5.28;3.00;;;;;;;45.07;10.18;94447.53;5024652;28;20029;-77
2023/10/15 10:31:47;;;;;;;7.78;3.70;;;;;;;44.89;10.43;94444.84;5027475;28;20025;-78
2023/10/15 10:34:14;;;;;;;7.53;3.70;;;;;;;44.95;10.42;94445.00;5026215;28;20130;-78
2023/10/15 10:36:41;;;;;;;11.27;4.00;;;;;;;44.97;10.56;94456.69;5043930;28;20040;-77
2023/10/15 10:39:13;;;;;;;7.05;3.17;;;;;;;45.40;10.68;94452.06;5010848;28;20032;-75
2023/10/15 10:41:49;;;;;;;5.65;2.90;;;;;;;45.43;9.94;94442.00;5027010;28;20033;-76
2023/10/15 10:44:23;;;;;;;5.32;2.80;;;;;;;45.89;9.50;94435.88;5029425;28;20179;-77
2023/10/15 10:46:52;;;;;;;7.03;2.75;;;;;;;46.04;9.69;94431.88;5026181;28;20087;-76
2023/10/15 10:49:28;;;;;;;5.78;3.03;;;;;;;46.14;9.47;94426.31;5027097;28;20036;-75
2023/10/15 10:52:17;;;;;;;6.13;2.70;;;;;;;46.49;9.21;94422.00;5041306;28;20478;-73
2023/10/15 10:54:43;;;;;;;4.47;2.72;;;;;;;46.67;9.16;94415.84;5010211;28;20040;-79
2023/10/15 10:57:09;;;;;;;5.97;2.75;;;;;;;46.83;9.27;94421.97;5014904;28;20021;-76
2023/10/15 10:59:36;;;;;;;8.13;3.05;;;;;;;47.13;9.07;94415.28;5029335;28;20479;-73
2023/10/15 11:02:04;;;;;;;6.28;3.10;;;;;;;47.14;8.74;94410.22;5030876;28;20025;-78
2023/10/15 11:04:48;;;;;;;8.02;2.90;;;;;;;46.89;8.47;94400.31;5030538;28;20028;-76
2023/10/15 11:07:15;;;;;;;8.55;3.60;;;;;;;46.81;8.92;94395.06;5029664;28;20036;-76
2023/10/15 11:09:40;;;;;;;9.27;3.15;;;;;;;47.22;9.08;94395.81;5049142;28;20029;-74
2023/10/15 11:12:09;;;;;;;7.68;3.20;;;;;;;47.54;8.97;94396.38;5046959;28;20032;-75
2023/10/15 11:14:35;;;;;;;6.20;3.10;;;;;;;47.75;8.50;94388.00;5031103;28;20025;-76
2023/10/15 11:17:00;;;;;;;5.80;2.97;;;;;;;47.81;8.42;94391.00;5029594;28;20033;-76
2023/10/15 11:19:30;;;;;;;5.45;2.90;;;;;;;48.11;7.97;94387.84;5030887;28;20067;-76
2023/10/15 11:21:56;;;;;;;9.32;2.83;;;;;;;47.87;8.17;94379.47;5030665;28;20056;-76
2023/10/15 11:24:23;;;;;;;6.50;3.00;;;;;;;47.47;8.67;94382.44;5029497;28;20036;-76
2023/10/15 11:26:49;;;;;;;9.07;3.58;;;;;;;47.21;8.78;94374.00;5014253;28;20028;-77
2023/10/15 11:29:18;;;;;;;8.63;3.97;;;;;;;45.89;9.63;94360.41;5029099;28;20044;-77
2023/10/15 11:31:46;;;;;;;8.50;3.50;;;;;;;44.29;9.97;94367.09;5031264;28;20451;-75
2023/10/15 11:34:13;;;;;;;5.25;2.85;;;;;;;43.25;11.11;94365.97;5012351;28;20471;-76
2023/10/15 11:36:43;;;;;;;4.90;3.70;;;;;;;41.96;11.68;94364.22;5030676;28;20020;-76
2023/10/15 11:39:17;;;;;;;8.35;3.90;;;;;;;40.74;12.31;94359.22;5030512;28;20024;-79
2023/10/15 11:41:52;;;;;;;6.50;3.25;;;;;;;39.71;13.17;94364.66;5030098;28;20396;-76
2023/10/15 11:44:26;;;;;;;6.15;3.22;;;;;;;38.80;14.50;94364.50;5007072;28;20029;-77
2023/10/15 11:46:55;;;;;;;7.78;2.85;;;;;;;38.20;14.62;94346.34;5011640;28;20179;-83